sensor_id;sensor_type;location;lat;lon;timestamp;P1;durP1;ratioP1;P2;durP2;ratioP2
22289;SDS011;11313;50.116;8.424;2023-08-17T00:02:12;2.97;;;2.00;;
22289;SDS011;11313;50.116;8.424;2023-08-17T00:04:38;2.42;;;2.22;;
22289;SDS011;11313;50.116;8.424;2023-08-17T00:07:04;2.33;;;2.00;;
22289;SDS011;11313;50.116;8.424;2023-08-17T00:09:30;2.45;;;2.00;;
22289;SDS011;11313;50.116;8.424;2023-08-17T00:11:55;2.78;;;2.00;;
22289;SDS011;11313;50.116;8.424;2023-08-17T00:14:21;2.80;;;2.38;;
22289;SDS011;11313;50.116;8.424;2023-08-17T00:16:48;2.35;;;2.00;;
22289;SDS011;11313;50.116;8.424;2023-08-17T00:19:14;2.45;;;2.00;;
22289;SDS011;11313;50.116;8.424;2023-08-17T00:21:40;2.70;;;1.83;;
22289;SDS011;11313;50.116;8.424;2023-08-17T00:24:05;2.20;;;2.00;;
22289;SDS011;11313;50.116;8.424;2023-08-17T00:26:31;2.20;;;2.00;;
22289;SDS011;11313;50.116;8.424;2023-08-17T00:28:57;1.92;;;1.70;;
22289;SDS011;11313;50.116;8.424;2023-08-17T00:31:22;1.67;;;1.52;;
22289;SDS011;11313;50.116;8.424;2023-08-17T00:33:48;2.17;;;1.95;;
22289;SDS011;11313;50.116;8.424;2023-08-17T00:36:13;2.42;;;1.85;;
22289;SDS011;11313;50.116;8.424;2023-08-17T00:38:39;2.08;;;1.50;;
22289;SDS011;11313;50.116;8.424;2023-08-17T00:41:04;1.90;;;1.65;;
22289;SDS011;11313;50.116;8.424;2023-08-17T00:43:30;3.65;;;2.08;;
22289;SDS011;11313;50.116;8.424;2023-08-17T00:45:57;1.60;;;1.50;;
22289;SDS011;11313;50.116;8.424;2023-08-17T00:48:23;2.35;;;1.80;;
22289;SDS011;11313;50.116;8.424;2023-08-17T00:50:49;2.10;;;1.90;;
22289;SDS011;11313;50.116;8.424;2023-08-17T00:53:16;2.20;;;1.63;;
22289;SDS011;11313;50.116;8.424;2023-08-17T00:55:43;1.73;;;1.63;;
22289;SDS011;11313;50.116;8.424;2023-08-17T00:58:09;2.00;;;1.70;;
22289;SDS011;11313;50.116;8.424;2023-08-17T01:00:35;2.00;;;1.75;;
22289;SDS011;11313;50.116;8.424;2023-08-17T01:03:00;2.33;;;1.70;;
22289;SDS011;11313;50.116;8.424;2023-08-17T01:05:26;2.00;;;1.80;;
22289;SDS011;11313;50.116;8.424;2023-08-17T01:07:51;1.90;;;1.70;;
22289;SDS011;11313;50.116;8.424;2023-08-17T01:10:17;2.00;;;1.80;;
22289;SDS011;11313;50.116;8.424;2023-08-17T01:15:21;2.22;;;1.73;;
22289;SDS011;11313;50.116;8.424;2023-08-17T01:18:04;1.90;;;1.70;;
22289;SDS011;11313;50.116;8.424;2023-08-17T01:20:44;1.98;;;1.88;;
22289;SDS011;11313;50.116;8.424;2023-08-17T01:23:11;1.67;;;1.58;;
22289;SDS011;11313;50.116;8.424;2023-08-17T01:25:37;1.70;;;1.60;;
22289;SDS011;11313;50.116;8.424;2023-08-17T01:28:03;1.70;;;1.60;;
22289;SDS011;11313;50.116;8.424;2023-08-17T01:30:29;2.53;;;1.70;;
22289;SDS011;11313;50.116;8.424;2023-08-17T01:33:03;2.10;;;1.88;;
22289;SDS011;11313;50.116;8.424;2023-08-17T01:35:38;1.80;;;1.50;;
22289;SDS011;11313;50.116;8.424;2023-08-17T01:38:16;2.50;;;2.00;;
22289;SDS011;11313;50.116;8.424;2023-08-17T01:40:46;2.08;;;1.77;;
22289;SDS011;11313;50.116;8.424;2023-08-17T01:43:14;1.77;;;1.67;;
22289;SDS011;11313;50.116;8.424;2023-08-17T01:45:41;2.03;;;1.80;;
22289;SDS011;11313;50.116;8.424;2023-08-17T01:48:07;1.98;;;1.80;;
22289;SDS011;11313;50.116;8.424;2023-08-17T01:50:32;2.00;;;1.80;;
22289;SDS011;11313;50.116;8.424;2023-08-17T01:52:58;2.10;;;1.65;;
22289;SDS011;11313;50.116;8.424;2023-08-17T01:55:23;1.48;;;1.38;;
22289;SDS011;11313;50.116;8.424;2023-08-17T01:57:49;1.75;;;1.65;;
22289;SDS011;11313;50.116;8.424;2023-08-17T02:00:15;1.92;;;1.65;;
22289;SDS011;11313;50.116;8.424;2023-08-17T02:02:41;1.60;;;1.50;;
22289;SDS011;11313;50.116;8.424;2023-08-17T02:05:07;1.58;;;1.48;;
22289;SDS011;11313;50.116;8.424;2023-08-17T02:07:33;1.98;;;1.77;;
22289;SDS011;11313;50.116;8.424;2023-08-17T02:09:58;1.80;;;1.70;;
22289;SDS011;11313;50.116;8.424;2023-08-17T02:12:24;1.70;;;1.60;;
22289;SDS011;11313;50.116;8.424;2023-08-17T02:14:49;1.50;;;1.40;;
22289;SDS011;11313;50.116;8.424;2023-08-17T02:17:15;1.70;;;1.60;;
22289;SDS011;11313;50.116;8.424;2023-08-17T02:19:41;3.17;;;1.77;;
22289;SDS011;11313;50.116;8.424;2023-08-17T02:22:08;1.75;;;1.52;;
22289;SDS011;11313;50.116;8.424;2023-08-17T02:24:34;1.75;;;1.50;;
22289;SDS011;11313;50.116;8.424;2023-08-17T02:26:59;1.70;;;1.60;;
22289;SDS011;11313;50.116;8.424;2023-08-17T02:29:25;1.45;;;1.35;;
22289;SDS011;11313;50.116;8.424;2023-08-17T02:31:50;1.70;;;1.60;;
22289;SDS011;11313;50.116;8.424;2023-08-17T02:34:16;1.85;;;1.40;;
22289;SDS011;11313;50.116;8.424;2023-08-17T02:36:41;1.95;;;1.65;;
22289;SDS011;11313;50.116;8.424;2023-08-17T02:39:07;1.67;;;1.40;;
22289;SDS011;11313;50.116;8.424;2023-08-17T02:41:32;1.70;;;1.60;;
22289;SDS011;11313;50.116;8.424;2023-08-17T02:43:58;1.55;;;1.45;;
22289;SDS011;11313;50.116;8.424;2023-08-17T02:46:23;2.67;;;1.65;;
22289;SDS011;11313;50.116;8.424;2023-08-17T02:48:49;2.22;;;1.65;;
22289;SDS011;11313;50.116;8.424;2023-08-17T02:51:15;1.52;;;1.40;;
22289;SDS011;11313;50.116;8.424;2023-08-17T02:53:41;1.70;;;1.30;;
22289;SDS011;11313;50.116;8.424;2023-08-17T02:56:06;1.70;;;1.50;;
22289;SDS011;11313;50.116;8.424;2023-08-17T02:58:32;1.67;;;1.58;;
22289;SDS011;11313;50.116;8.424;2023-08-17T03:00:57;1.60;;;1.48;;
22289;SDS011;11313;50.116;8.424;2023-08-17T03:03:23;1.67;;;1.40;;
22289;SDS011;11313;50.116;8.424;2023-08-17T03:05:48;1.60;;;1.45;;
22289;SDS011;11313;50.116;8.424;2023-08-17T03:08:14;1.95;;;1.60;;
22289;SDS011;11313;50.116;8.424;2023-08-17T03:10:39;1.60;;;1.50;;
22289;SDS011;11313;50.116;8.424;2023-08-17T03:13:04;1.65;;;1.40;;
22289;SDS011;11313;50.116;8.424;2023-08-17T03:15:30;1.63;;;1.52;;
22289;SDS011;11313;50.116;8.424;2023-08-17T03:17:55;1.70;;;1.40;;
22289;SDS011;11313;50.116;8.424;2023-08-17T03:20:21;1.40;;;1.30;;
22289;SDS011;11313;50.116;8.424;2023-08-17T03:22:46;2.75;;;1.50;;
22289;SDS011;11313;50.116;8.424;2023-08-17T03:25:12;1.63;;;1.52;;
22289;SDS011;11313;50.116;8.424;2023-08-17T03:27:37;1.83;;;1.42;;
22289;SDS011;11313;50.116;8.424;2023-08-17T03:30:04;1.60;;;1.50;;
22289;SDS011;11313;50.116;8.424;2023-08-17T03:32:30;1.50;;;1.40;;
22289;SDS011;11313;50.116;8.424;2023-08-17T03:34:55;1.50;;;1.40;;
22289;SDS011;11313;50.116;8.424;2023-08-17T03:37:21;1.45;;;1.20;;
22289;SDS011;11313;50.116;8.424;2023-08-17T03:39:46;1.20;;;1.10;;
22289;SDS011;11313;50.116;8.424;2023-08-17T03:42:12;1.40;;;1.30;;
22289;SDS011;11313;50.116;8.424;2023-08-17T03:44:37;1.40;;;1.30;;
22289;SDS011;11313;50.116;8.424;2023-08-17T03:47:03;1.45;;;1.27;;
22289;SDS011;11313;50.116;8.424;2023-08-17T03:49:28;1.30;;;1.20;;
22289;SDS011;11313;50.116;8.424;2023-08-17T03:51:54;1.63;;;1.30;;
22289;SDS011;11313;50.116;8.424;2023-08-17T03:54:19;1.63;;;1.30;;
22289;SDS011;11313;50.116;8.424;2023-08-17T03:56:45;1.55;;;1.40;;
22289;SDS011;11313;50.116;8.424;2023-08-17T03:59:10;1.50;;;1.40;;
22289;SDS011;11313;50.116;8.424;2023-08-17T04:01:36;1.48;;;1.30;;
22289;SDS011;11313;50.116;8.424;2023-08-17T04:04:01;1.45;;;1.33;;
22289;SDS011;11313;50.116;8.424;2023-08-17T04:06:27;1.40;;;1.30;;
22289;SDS011;11313;50.116;8.424;2023-08-17T04:08:52;1.73;;;1.42;;
22289;SDS011;11313;50.116;8.424;2023-08-17T04:11:18;1.20;;;1.10;;
22289;SDS011;11313;50.116;8.424;2023-08-17T04:13:43;1.73;;;1.23;;
22289;SDS011;11313;50.116;8.424;2023-08-17T04:16:09;1.58;;;1.48;;
22289;SDS011;11313;50.116;8.424;2023-08-17T04:18:34;2.28;;;1.38;;
22289;SDS011;11313;50.116;8.424;2023-08-17T04:21:00;2.22;;;1.30;;
22289;SDS011;11313;50.116;8.424;2023-08-17T04:23:25;1.55;;;1.45;;
22289;SDS011;11313;50.116;8.424;2023-08-17T04:25:51;1.52;;;1.40;;
22289;SDS011;11313;50.116;8.424;2023-08-17T04:28:18;1.30;;;1.20;;
22289;SDS011;11313;50.116;8.424;2023-08-17T04:30:44;1.63;;;1.30;;
22289;SDS011;11313;50.116;8.424;2023-08-17T04:33:09;1.33;;;1.23;;
22289;SDS011;11313;50.116;8.424;2023-08-17T04:35:35;1.10;;;1.00;;
22289;SDS011;11313;50.116;8.424;2023-08-17T04:38:00;1.42;;;1.33;;
22289;SDS011;11313;50.116;8.424;2023-08-17T04:40:26;1.48;;;1.23;;
22289;SDS011;11313;50.116;8.424;2023-08-17T04:42:52;1.48;;;1.30;;
22289;SDS011;11313;50.116;8.424;2023-08-17T04:45:18;2.00;;;1.10;;
22289;SDS011;11313;50.116;8.424;2023-08-17T04:47:43;2.42;;;1.35;;
22289;SDS011;11313;50.116;8.424;2023-08-17T04:50:09;1.58;;;1.40;;
22289;SDS011;11313;50.116;8.424;2023-08-17T04:52:35;1.50;;;1.30;;
22289;SDS011;11313;50.116;8.424;2023-08-17T04:55:00;1.40;;;1.30;;
22289;SDS011;11313;50.116;8.424;2023-08-17T04:57:26;1.23;;;1.10;;
22289;SDS011;11313;50.116;8.424;2023-08-17T04:59:53;1.33;;;1.20;;
22289;SDS011;11313;50.116;8.424;2023-08-17T05:02:18;1.20;;;1.10;;
22289;SDS011;11313;50.116;8.424;2023-08-17T05:04:45;1.25;;;1.10;;
22289;SDS011;11313;50.116;8.424;2023-08-17T05:07:11;1.40;;;1.30;;
22289;SDS011;11313;50.116;8.424;2023-08-17T05:09:36;1.60;;;1.10;;
22289;SDS011;11313;50.116;8.424;2023-08-17T05:12:02;1.20;;;1.10;;
22289;SDS011;11313;50.116;8.424;2023-08-17T05:14:28;1.30;;;1.20;;
22289;SDS011;11313;50.116;8.424;2023-08-17T05:16:53;1.27;;;1.17;;
22289;SDS011;11313;50.116;8.424;2023-08-17T05:19:19;1.88;;;1.20;;
22289;SDS011;11313;50.116;8.424;2023-08-17T05:21:44;1.30;;;1.20;;
22289;SDS011;11313;50.116;8.424;2023-08-17T05:24:10;1.77;;;1.35;;
22289;SDS011;11313;50.116;8.424;2023-08-17T05:26:35;1.20;;;1.10;;
22289;SDS011;11313;50.116;8.424;2023-08-17T05:29:01;1.40;;;1.20;;
22289;SDS011;11313;50.116;8.424;2023-08-17T05:31:26;1.35;;;1.20;;
22289;SDS011;11313;50.116;8.424;2023-08-17T05:33:52;1.02;;;0.93;;
22289;SDS011;11313;50.116;8.424;2023-08-17T05:36:17;1.42;;;1.30;;
22289;SDS011;11313;50.116;8.424;2023-08-17T05:38:43;1.23;;;1.05;;
22289;SDS011;11313;50.116;8.424;2023-08-17T05:41:08;1.50;;;1.10;;
22289;SDS011;11313;50.116;8.424;2023-08-17T05:43:34;2.17;;;0.95;;
22289;SDS011;11313;50.116;8.424;2023-08-17T05:45:59;3.10;;;1.13;;
22289;SDS011;11313;50.116;8.424;2023-08-17T05:48:25;2.42;;;1.10;;
22289;SDS011;11313;50.116;8.424;2023-08-17T05:50:50;4.07;;;1.40;;
22289;SDS011;11313;50.116;8.424;2023-08-17T05:53:16;5.63;;;1.48;;
22289;SDS011;11313;50.116;8.424;2023-08-17T05:55:42;3.78;;;1.13;;
22289;SDS011;11313;50.116;8.424;2023-08-17T05:58:07;5.47;;;1.20;;
22289;SDS011;11313;50.116;8.424;2023-08-17T06:00:32;3.72;;;1.42;;
22289;SDS011;11313;50.116;8.424;2023-08-17T06:02:58;3.90;;;1.33;;
22289;SDS011;11313;50.116;8.424;2023-08-17T06:05:26;3.88;;;1.20;;
22289;SDS011;11313;50.116;8.424;2023-08-17T06:07:53;5.03;;;1.00;;
22289;SDS011;11313;50.116;8.424;2023-08-17T06:10:19;3.80;;;1.05;;
22289;SDS011;11313;50.116;8.424;2023-08-17T06:12:45;2.60;;;1.17;;
22289;SDS011;11313;50.116;8.424;2023-08-17T06:15:11;5.97;;;1.33;;
22289;SDS011;11313;50.116;8.424;2023-08-17T06:17:36;3.28;;;0.90;;
22289;SDS011;11313;50.116;8.424;2023-08-17T06:20:02;3.33;;;1.10;;
22289;SDS011;11313;50.116;8.424;2023-08-17T06:22:28;1.60;;;1.08;;
22289;SDS011;11313;50.116;8.424;2023-08-17T06:24:53;6.93;;;1.15;;
22289;SDS011;11313;50.116;8.424;2023-08-17T06:27:19;3.97;;;1.20;;
22289;SDS011;11313;50.116;8.424;2023-08-17T06:29:44;2.88;;;1.15;;
22289;SDS011;11313;50.116;8.424;2023-08-17T06:32:10;3.47;;;1.20;;
22289;SDS011;11313;50.116;8.424;2023-08-17T06:34:35;3.47;;;1.08;;
22289;SDS011;11313;50.116;8.424;2023-08-17T06:37:02;3.30;;;1.13;;
22289;SDS011;11313;50.116;8.424;2023-08-17T06:39:28;3.53;;;1.30;;
22289;SDS011;11313;50.116;8.424;2023-08-17T06:41:54;1.65;;;0.80;;
22289;SDS011;11313;50.116;8.424;2023-08-17T06:44:19;3.75;;;1.00;;
22289;SDS011;11313;50.116;8.424;2023-08-17T06:46:45;2.55;;;0.90;;
22289;SDS011;11313;50.116;8.424;2023-08-17T06:49:11;2.95;;;1.00;;
22289;SDS011;11313;50.116;8.424;2023-08-17T06:51:37;2.53;;;0.70;;
22289;SDS011;11313;50.116;8.424;2023-08-17T06:54:03;1.85;;;0.98;;
22289;SDS011;11313;50.116;8.424;2023-08-17T06:56:29;2.00;;;1.13;;
22289;SDS011;11313;50.116;8.424;2023-08-17T06:58:55;2.58;;;0.80;;
22289;SDS011;11313;50.116;8.424;2023-08-17T07:01:20;2.50;;;1.05;;
22289;SDS011;11313;50.116;8.424;2023-08-17T07:03:46;2.33;;;0.80;;
22289;SDS011;11313;50.116;8.424;2023-08-17T07:06:12;1.67;;;0.85;;
22289;SDS011;11313;50.116;8.424;2023-08-17T07:08:38;1.92;;;1.00;;
22289;SDS011;11313;50.116;8.424;2023-08-17T07:11:03;1.08;;;0.90;;
22289;SDS011;11313;50.116;8.424;2023-08-17T07:13:30;2.13;;;0.90;;
22289;SDS011;11313;50.116;8.424;2023-08-17T07:15:56;1.92;;;0.95;;
22289;SDS011;11313;50.116;8.424;2023-08-17T07:18:21;1.30;;;0.70;;
22289;SDS011;11313;50.116;8.424;2023-08-17T07:20:47;1.20;;;0.90;;
22289;SDS011;11313;50.116;8.424;2023-08-17T07:23:12;2.42;;;0.90;;
22289;SDS011;11313;50.116;8.424;2023-08-17T07:25:38;1.92;;;0.82;;
22289;SDS011;11313;50.116;8.424;2023-08-17T07:28:03;1.27;;;0.82;;
22289;SDS011;11313;50.116;8.424;2023-08-17T07:30:29;1.90;;;0.90;;
22289;SDS011;11313;50.116;8.424;2023-08-17T07:32:55;1.20;;;0.80;;
22289;SDS011;11313;50.116;8.424;2023-08-17T07:35:20;3.30;;;0.90;;
22289;SDS011;11313;50.116;8.424;2023-08-17T07:37:46;2.72;;;0.80;;
22289;SDS011;11313;50.116;8.424;2023-08-17T07:40:11;1.90;;;0.90;;
22289;SDS011;11313;50.116;8.424;2023-08-17T07:42:37;2.47;;;0.80;;
22289;SDS011;11313;50.116;8.424;2023-08-17T07:45:02;1.80;;;0.70;;
22289;SDS011;11313;50.116;8.424;2023-08-17T07:47:33;0.90;;;0.90;;
22289;SDS011;11313;50.116;8.424;2023-08-17T07:50:01;10.02;;;1.30;;
22289;SDS011;11313;50.116;8.424;2023-08-17T07:52:26;5.43;;;1.30;;
22289;SDS011;11313;50.116;8.424;2023-08-17T07:54:52;8.75;;;1.23;;
22289;SDS011;11313;50.116;8.424;2023-08-17T07:57:18;6.95;;;1.20;;
22289;SDS011;11313;50.116;8.424;2023-08-17T07:59:43;9.75;;;1.20;;
22289;SDS011;11313;50.116;8.424;2023-08-17T08:02:09;14.43;;;1.05;;
22289;SDS011;11313;50.116;8.424;2023-08-17T08:04:35;4.40;;;1.10;;
22289;SDS011;11313;50.116;8.424;2023-08-17T08:07:00;7.03;;;1.35;;
22289;SDS011;11313;50.116;8.424;2023-08-17T08:09:26;3.72;;;1.20;;
22289;SDS011;11313;50.116;8.424;2023-08-17T08:11:51;4.82;;;1.10;;
22289;SDS011;11313;50.116;8.424;2023-08-17T08:14:17;4.97;;;1.48;;
22289;SDS011;11313;50.116;8.424;2023-08-17T08:16:42;4.35;;;1.15;;
22289;SDS011;11313;50.116;8.424;2023-08-17T08:19:08;3.30;;;0.98;;
22289;SDS011;11313;50.116;8.424;2023-08-17T08:21:33;4.95;;;1.00;;
22289;SDS011;11313;50.116;8.424;2023-08-17T08:23:58;5.60;;;1.38;;
22289;SDS011;11313;50.116;8.424;2023-08-17T08:26:24;2.95;;;1.10;;
22289;SDS011;11313;50.116;8.424;2023-08-17T08:28:49;2.55;;;0.98;;
22289;SDS011;11313;50.116;8.424;2023-08-17T08:31:15;3.80;;;1.00;;
22289;SDS011;11313;50.116;8.424;2023-08-17T08:33:40;4.75;;;1.00;;
22289;SDS011;11313;50.116;8.424;2023-08-17T08:36:06;4.10;;;0.90;;
22289;SDS011;11313;50.116;8.424;2023-08-17T08:38:32;6.78;;;1.23;;
22289;SDS011;11313;50.116;8.424;2023-08-17T08:40:58;2.63;;;0.95;;
22289;SDS011;11313;50.116;8.424;2023-08-17T08:43:23;6.30;;;1.13;;
22289;SDS011;11313;50.116;8.424;2023-08-17T08:45:50;3.30;;;1.10;;
22289;SDS011;11313;50.116;8.424;2023-08-17T08:48:17;3.72;;;1.30;;
22289;SDS011;11313;50.116;8.424;2023-08-17T08:50:43;3.05;;;1.33;;
22289;SDS011;11313;50.116;8.424;2023-08-17T08:53:14;3.35;;;1.00;;
22289;SDS011;11313;50.116;8.424;2023-08-17T08:58:22;2.47;;;1.25;;
22289;SDS011;11313;50.116;8.424;2023-08-17T09:00:49;1.73;;;1.10;;
22289;SDS011;11313;50.116;8.424;2023-08-17T09:03:15;5.18;;;1.13;;
22289;SDS011;11313;50.116;8.424;2023-08-17T09:05:44;2.63;;;1.20;;
22289;SDS011;11313;50.116;8.424;2023-08-17T09:08:11;2.92;;;1.05;;
22289;SDS011;11313;50.116;8.424;2023-08-17T09:10:38;2.38;;;0.90;;
22289;SDS011;11313;50.116;8.424;2023-08-17T09:13:04;2.92;;;1.13;;
22289;SDS011;11313;50.116;8.424;2023-08-17T09:15:29;1.90;;;1.10;;
22289;SDS011;11313;50.116;8.424;2023-08-17T09:17:55;4.72;;;1.20;;
22289;SDS011;11313;50.116;8.424;2023-08-17T09:20:34;3.92;;;1.20;;
22289;SDS011;11313;50.116;8.424;2023-08-17T09:23:03;1.05;;;0.80;;
22289;SDS011;11313;50.116;8.424;2023-08-17T09:25:30;2.90;;;1.10;;
22289;SDS011;11313;50.116;8.424;2023-08-17T09:27:57;1.58;;;0.82;;
22289;SDS011;11313;50.116;8.424;2023-08-17T09:30:22;2.55;;;1.10;;
22289;SDS011;11313;50.116;8.424;2023-08-17T09:32:48;1.95;;;1.17;;
22289;SDS011;11313;50.116;8.424;2023-08-17T09:35:14;2.03;;;1.00;;
22289;SDS011;11313;50.116;8.424;2023-08-17T09:37:40;1.40;;;1.23;;
22289;SDS011;11313;50.116;8.424;2023-08-17T09:40:05;2.83;;;1.10;;
22289;SDS011;11313;50.116;8.424;2023-08-17T09:42:34;1.45;;;1.00;;
22289;SDS011;11313;50.116;8.424;2023-08-17T09:45:00;1.90;;;0.95;;
22289;SDS011;11313;50.116;8.424;2023-08-17T09:47:27;3.63;;;1.20;;
22289;SDS011;11313;50.116;8.424;2023-08-17T09:49:52;1.92;;;1.17;;
22289;SDS011;11313;50.116;8.424;2023-08-17T09:52:19;2.47;;;1.20;;
22289;SDS011;11313;50.116;8.424;2023-08-17T09:54:46;4.32;;;1.00;;
22289;SDS011;11313;50.116;8.424;2023-08-17T09:57:14;2.83;;;1.20;;
22289;SDS011;11313;50.116;8.424;2023-08-17T09:59:40;1.55;;;0.90;;
22289;SDS011;11313;50.116;8.424;2023-08-17T10:02:18;1.08;;;0.88;;
22289;SDS011;11313;50.116;8.424;2023-08-17T10:04:49;4.15;;;1.42;;
22289;SDS011;11313;50.116;8.424;2023-08-17T10:09:48;2.50;;;1.10;;
22289;SDS011;11313;50.116;8.424;2023-08-17T10:12:19;2.70;;;1.10;;
22289;SDS011;11313;50.116;8.424;2023-08-17T10:14:53;1.90;;;0.90;;
22289;SDS011;11313;50.116;8.424;2023-08-17T10:17:25;3.42;;;1.13;;
22289;SDS011;11313;50.116;8.424;2023-08-17T10:19:54;1.23;;;1.00;;
22289;SDS011;11313;50.116;8.424;2023-08-17T10:22:33;1.20;;;0.80;;
22289;SDS011;11313;50.116;8.424;2023-08-17T10:25:05;1.75;;;1.00;;
22289;SDS011;11313;50.116;8.424;2023-08-17T10:27:34;1.95;;;1.08;;
22289;SDS011;11313;50.116;8.424;2023-08-17T10:30:00;1.20;;;1.10;;
22289;SDS011;11313;50.116;8.424;2023-08-17T10:32:26;1.55;;;1.20;;
22289;SDS011;11313;50.116;8.424;2023-08-17T10:34:53;1.13;;;1.02;;
22289;SDS011;11313;50.116;8.424;2023-08-17T10:37:19;1.88;;;1.10;;
22289;SDS011;11313;50.116;8.424;2023-08-17T10:39:46;1.90;;;1.10;;
22289;SDS011;11313;50.116;8.424;2023-08-17T10:42:13;2.08;;;1.10;;
22289;SDS011;11313;50.116;8.424;2023-08-17T10:44:43;1.55;;;0.95;;
22289;SDS011;11313;50.116;8.424;2023-08-17T10:47:20;1.88;;;1.10;;
22289;SDS011;11313;50.116;8.424;2023-08-17T10:49:50;1.15;;;0.90;;
22289;SDS011;11313;50.116;8.424;2023-08-17T10:52:26;1.33;;;1.20;;
22289;SDS011;11313;50.116;8.424;2023-08-17T10:54:56;2.22;;;0.90;;
22289;SDS011;11313;50.116;8.424;2023-08-17T10:57:31;1.88;;;1.05;;
22289;SDS011;11313;50.116;8.424;2023-08-17T11:00:22;1.65;;;0.95;;
22289;SDS011;11313;50.116;8.424;2023-08-17T11:02:55;1.13;;;0.90;;
22289;SDS011;11313;50.116;8.424;2023-08-17T11:05:42;0.95;;;0.85;;
22289;SDS011;11313;50.116;8.424;2023-08-17T11:08:31;1.20;;;1.00;;
22289;SDS011;11313;50.116;8.424;2023-08-17T11:11:05;2.00;;;1.00;;
22289;SDS011;11313;50.116;8.424;2023-08-17T11:13:41;1.58;;;1.00;;
22289;SDS011;11313;50.116;8.424;2023-08-17T11:16:08;2.22;;;1.05;;
22289;SDS011;11313;50.116;8.424;2023-08-17T11:18:35;1.60;;;1.05;;
22289;SDS011;11313;50.116;8.424;2023-08-17T11:21:05;1.08;;;0.98;;
22289;SDS011;11313;50.116;8.424;2023-08-17T11:23:31;1.35;;;0.85;;
22289;SDS011;11313;50.116;8.424;2023-08-17T11:25:59;1.75;;;1.10;;
22289;SDS011;11313;50.116;8.424;2023-08-17T11:28:25;1.58;;;1.00;;
22289;SDS011;11313;50.116;8.424;2023-08-17T11:31:01;1.65;;;0.90;;
22289;SDS011;11313;50.116;8.424;2023-08-17T11:33:37;1.02;;;0.98;;
22289;SDS011;11313;50.116;8.424;2023-08-17T11:36:05;1.33;;;0.95;;
22289;SDS011;11313;50.116;8.424;2023-08-17T11:38:33;1.10;;;1.00;;
22289;SDS011;11313;50.116;8.424;2023-08-17T11:40:59;1.85;;;1.20;;
22289;SDS011;11313;50.116;8.424;2023-08-17T11:43:27;1.90;;;0.93;;
22289;SDS011;11313;50.116;8.424;2023-08-17T11:45:57;1.10;;;1.00;;
22289;SDS011;11313;50.116;8.424;2023-08-17T11:48:23;1.25;;;0.85;;
22289;SDS011;11313;50.116;8.424;2023-08-17T11:50:49;1.33;;;1.08;;
22289;SDS011;11313;50.116;8.424;2023-08-17T11:53:16;1.38;;;1.00;;
22289;SDS011;11313;50.116;8.424;2023-08-17T11:55:41;1.02;;;0.88;;
22289;SDS011;11313;50.116;8.424;2023-08-17T11:58:07;1.00;;;0.90;;
22289;SDS011;11313;50.116;8.424;2023-08-17T12:00:36;1.00;;;0.80;;
22289;SDS011;11313;50.116;8.424;2023-08-17T12:03:05;1.17;;;0.80;;
22289;SDS011;11313;50.116;8.424;2023-08-17T12:05:30;1.02;;;0.90;;
22289;SDS011;11313;50.116;8.424;2023-08-17T12:07:57;1.00;;;0.80;;
22289;SDS011;11313;50.116;8.424;2023-08-17T12:10:27;1.60;;;0.90;;
22289;SDS011;11313;50.116;8.424;2023-08-17T12:12:53;1.52;;;1.00;;
22289;SDS011;11313;50.116;8.424;2023-08-17T12:15:22;1.42;;;0.95;;
22289;SDS011;11313;50.116;8.424;2023-08-17T12:17:48;1.33;;;1.00;;
22289;SDS011;11313;50.116;8.424;2023-08-17T12:20:17;1.33;;;1.08;;
22289;SDS011;11313;50.116;8.424;2023-08-17T12:22:44;1.10;;;0.90;;
22289;SDS011;11313;50.116;8.424;2023-08-17T12:25:11;0.75;;;0.75;;
22289;SDS011;11313;50.116;8.424;2023-08-17T12:27:36;1.25;;;0.98;;
22289;SDS011;11313;50.116;8.424;2023-08-17T12:30:02;1.00;;;0.90;;
22289;SDS011;11313;50.116;8.424;2023-08-17T12:32:28;1.33;;;0.80;;
22289;SDS011;11313;50.116;8.424;2023-08-17T12:34:53;1.20;;;0.90;;
22289;SDS011;11313;50.116;8.424;2023-08-17T12:37:19;1.15;;;0.95;;
22289;SDS011;11313;50.116;8.424;2023-08-17T12:39:48;0.70;;;0.70;;
22289;SDS011;11313;50.116;8.424;2023-08-17T12:42:14;0.80;;;0.80;;
22289;SDS011;11313;50.116;8.424;2023-08-17T12:44:40;1.45;;;1.00;;
22289;SDS011;11313;50.116;8.424;2023-08-17T12:47:06;2.00;;;1.10;;
22289;SDS011;11313;50.116;8.424;2023-08-17T12:49:32;0.88;;;0.82;;
22289;SDS011;11313;50.116;8.424;2023-08-17T12:51:57;1.05;;;0.98;;
22289;SDS011;11313;50.116;8.424;2023-08-17T12:54:23;1.52;;;0.80;;
22289;SDS011;11313;50.116;8.424;2023-08-17T12:56:48;0.77;;;0.77;;
22289;SDS011;11313;50.116;8.424;2023-08-17T12:59:14;0.85;;;0.85;;
22289;SDS011;11313;50.116;8.424;2023-08-17T13:01:39;0.98;;;0.80;;
22289;SDS011;11313;50.116;8.424;2023-08-17T13:04:05;1.23;;;0.85;;
22289;SDS011;11313;50.116;8.424;2023-08-17T13:06:31;0.80;;;0.80;;
22289;SDS011;11313;50.116;8.424;2023-08-17T13:08:56;1.38;;;0.88;;
22289;SDS011;11313;50.116;8.424;2023-08-17T13:11:22;1.13;;;0.90;;
22289;SDS011;11313;50.116;8.424;2023-08-17T13:13:47;0.88;;;0.88;;
22289;SDS011;11313;50.116;8.424;2023-08-17T13:16:13;0.73;;;0.73;;
22289;SDS011;11313;50.116;8.424;2023-08-17T13:18:38;0.70;;;0.70;;
22289;SDS011;11313;50.116;8.424;2023-08-17T13:21:04;0.88;;;0.85;;
22289;SDS011;11313;50.116;8.424;2023-08-17T13:23:29;0.75;;;0.75;;
22289;SDS011;11313;50.116;8.424;2023-08-17T13:25:55;1.13;;;0.90;;
22289;SDS011;11313;50.116;8.424;2023-08-17T13:28:21;1.20;;;1.10;;
22289;SDS011;11313;50.116;8.424;2023-08-17T13:30:46;1.00;;;0.93;;
22289;SDS011;11313;50.116;8.424;2023-08-17T13:33:12;1.33;;;0.70;;
22289;SDS011;11313;50.116;8.424;2023-08-17T13:35:37;0.73;;;0.73;;
22289;SDS011;11313;50.116;8.424;2023-08-17T13:38:03;1.23;;;0.90;;
22289;SDS011;11313;50.116;8.424;2023-08-17T13:40:29;1.08;;;0.90;;
22289;SDS011;11313;50.116;8.424;2023-08-17T13:42:58;0.80;;;0.80;;
22289;SDS011;11313;50.116;8.424;2023-08-17T13:45:25;0.95;;;0.80;;
22289;SDS011;11313;50.116;8.424;2023-08-17T13:47:51;1.10;;;1.00;;
22289;SDS011;11313;50.116;8.424;2023-08-17T13:50:17;1.20;;;0.90;;
22289;SDS011;11313;50.116;8.424;2023-08-17T13:52:43;0.80;;;0.70;;
22289;SDS011;11313;50.116;8.424;2023-08-17T13:55:09;0.80;;;0.80;;
22289;SDS011;11313;50.116;8.424;2023-08-17T13:57:34;1.23;;;1.10;;
22289;SDS011;11313;50.116;8.424;2023-08-17T14:00:00;1.60;;;0.90;;
22289;SDS011;11313;50.116;8.424;2023-08-17T14:02:25;1.90;;;0.80;;
22289;SDS011;11313;50.116;8.424;2023-08-17T14:04:51;1.02;;;0.93;;
22289;SDS011;11313;50.116;8.424;2023-08-17T14:07:16;0.95;;;0.90;;
22289;SDS011;11313;50.116;8.424;2023-08-17T14:09:42;0.88;;;0.80;;
22289;SDS011;11313;50.116;8.424;2023-08-17T14:12:08;0.70;;;0.70;;
22289;SDS011;11313;50.116;8.424;2023-08-17T14:14:33;1.00;;;0.77;;
22289;SDS011;11313;50.116;8.424;2023-08-17T14:16:59;1.13;;;0.85;;
22289;SDS011;11313;50.116;8.424;2023-08-17T14:19:25;0.65;;;0.65;;
22289;SDS011;11313;50.116;8.424;2023-08-17T14:21:50;0.60;;;0.60;;
22289;SDS011;11313;50.116;8.424;2023-08-17T14:24:17;0.70;;;0.70;;
22289;SDS011;11313;50.116;8.424;2023-08-17T14:26:43;0.70;;;0.70;;
22289;SDS011;11313;50.116;8.424;2023-08-17T14:29:08;1.02;;;0.88;;
22289;SDS011;11313;50.116;8.424;2023-08-17T14:31:34;0.70;;;0.70;;
22289;SDS011;11313;50.116;8.424;2023-08-17T14:33:59;0.90;;;0.90;;
22289;SDS011;11313;50.116;8.424;2023-08-17T14:36:24;0.80;;;0.80;;
22289;SDS011;11313;50.116;8.424;2023-08-17T14:38:50;1.25;;;0.85;;
22289;SDS011;11313;50.116;8.424;2023-08-17T14:41:15;0.75;;;0.75;;
22289;SDS011;11313;50.116;8.424;2023-08-17T14:43:41;0.98;;;0.70;;
22289;SDS011;11313;50.116;8.424;2023-08-17T14:46:07;0.75;;;0.75;;
22289;SDS011;11313;50.116;8.424;2023-08-17T14:48:33;0.70;;;0.70;;
22289;SDS011;11313;50.116;8.424;2023-08-17T14:51:21;0.73;;;0.73;;
22289;SDS011;11313;50.116;8.424;2023-08-17T14:53:47;0.93;;;0.80;;